sensor_id;sensor_type;location;lat;lon;timestamp;pressure;altitude;pressure_sealevel;temperature;humidity
17362;BME280;8798;51.938;4.348;2022-12-17T00:02:07;101687.56;;;-0.88;92.38
17362;BME280;8798;51.938;4.348;2022-12-17T00:04:52;101695.50;;;-0.89;92.48
17362;BME280;8798;51.938;4.348;2022-12-17T00:07:37;101688.53;;;-0.90;92.41
17362;BME280;8798;51.938;4.348;2022-12-17T00:10:23;101703.50;;;-0.91;92.26
17362;BME280;8798;51.938;4.348;2022-12-17T00:13:18;101700.06;;;-0.93;92.43
17362;BME280;8798;51.938;4.348;2022-12-17T00:16:04;101695.72;;;-0.94;92.58
17362;BME280;8798;51.938;4.348;2022-12-17T00:18:50;101701.84;;;-0.93;91.96
17362;BME280;8798;51.938;4.348;2022-12-17T00:21:35;101706.25;;;-0.94;92.36
17362;BME280;8798;51.938;4.348;2022-12-17T00:24:21;101720.22;;;-0.92;92.32
17362;BME280;8798;51.938;4.348;2022-12-17T00:27:07;101735.13;;;-0.91;92.36
17362;BME280;8798;51.938;4.348;2022-12-17T00:29:54;101736.03;;;-0.92;92.38
17362;BME280;8798;51.938;4.348;2022-12-17T00:32:39;101743.91;;;-0.90;92.02
17362;BME280;8798;51.938;4.348;2022-12-17T00:35:24;101744.84;;;-0.91;92.01
17362;BME280;8798;51.938;4.348;2022-12-17T00:38:14;101750.16;;;-0.93;92.25
17362;BME280;8798;51.938;4.348;2022-12-17T00:41:00;101748.44;;;-0.94;92.11
17362;BME280;8798;51.938;4.348;2022-12-17T00:43:45;101771.19;;;-0.91;92.32
17362;BME280;8798;51.938;4.348;2022-12-17T00:46:31;101788.56;;;-0.85;92.31
17362;BME280;8798;51.938;4.348;2022-12-17T00:49:17;101819.06;;;-0.78;92.31
17362;BME280;8798;51.938;4.348;2022-12-17T00:52:14;101854.88;;;-0.71;92.36
17362;BME280;8798;51.938;4.348;2022-12-17T00:54:59;101879.31;;;-0.66;92.40
17362;BME280;8798;51.938;4.348;2022-12-17T00:57:44;101902.88;;;-0.61;92.09
17362;BME280;8798;51.938;4.348;2022-12-17T01:00:29;101911.53;;;-0.58;92.55
17362;BME280;8798;51.938;4.348;2022-12-17T01:03:16;101931.69;;;-0.55;92.15
17362;BME280;8798;51.938;4.348;2022-12-17T01:06:02;101954.41;;;-0.51;92.14
17362;BME280;8798;51.938;4.348;2022-12-17T01:08:48;101965.72;;;-0.48;92.04
17362;BME280;8798;51.938;4.348;2022-12-17T01:11:33;101979.75;;;-0.47;92.18
17362;BME280;8798;51.938;4.348;2022-12-17T01:14:22;101977.13;;;-0.47;92.38
17362;BME280;8798;51.938;4.348;2022-12-17T01:17:07;101983.28;;;-0.47;92.17
17362;BME280;8798;51.938;4.348;2022-12-17T01:19:54;101993.84;;;-0.47;92.40
17362;BME280;8798;51.938;4.348;2022-12-17T01:22:39;101985.94;;;-0.47;92.30
17362;BME280;8798;51.938;4.348;2022-12-17T01:25:25;101991.13;;;-0.45;92.40
17362;BME280;8798;51.938;4.348;2022-12-17T01:28:10;102006.91;;;-0.44;92.19
17362;BME280;8798;51.938;4.348;2022-12-17T01:30:55;102006.91;;;-0.44;92.36
17362;BME280;8798;51.938;4.348;2022-12-17T01:33:41;102014.81;;;-0.42;92.27
17362;BME280;8798;51.938;4.348;2022-12-17T01:36:28;102029.72;;;-0.41;92.45
17362;BME280;8798;51.938;4.348;2022-12-17T01:39:13;102027.91;;;-0.40;92.53
17362;BME280;8798;51.938;4.348;2022-12-17T01:41:58;102042.88;;;-0.39;92.26
17362;BME280;8798;51.938;4.348;2022-12-17T01:44:46;102045.38;;;-0.36;92.64
17362;BME280;8798;51.938;4.348;2022-12-17T01:47:36;102062.91;;;-0.34;92.56
17362;BME280;8798;51.938;4.348;2022-12-17T01:50:24;102062.03;;;-0.34;92.44
17362;BME280;8798;51.938;4.348;2022-12-17T01:53:12;102073.38;;;-0.32;92.41
17362;BME280;8798;51.938;4.348;2022-12-17T01:55:59;102087.41;;;-0.30;92.36
17362;BME280;8798;51.938;4.348;2022-12-17T01:58:46;102094.41;;;-0.29;92.53
17362;BME280;8798;51.938;4.348;2022-12-17T02:01:31;102094.41;;;-0.29;92.23
17362;BME280;8798;51.938;4.348;2022-12-17T02:04:17;102106.69;;;-0.28;92.68
17362;BME280;8798;51.938;4.348;2022-12-17T02:07:11;102118.06;;;-0.26;92.23
17362;BME280;8798;51.938;4.348;2022-12-17T02:10:09;102114.50;;;-0.25;92.84
17362;BME280;8798;51.938;4.348;2022-12-17T02:13:05;102116.28;;;-0.26;93.03
17362;BME280;8798;51.938;4.348;2022-12-17T02:15:54;102132.09;;;-0.24;92.12
17362;BME280;8798;51.938;4.348;2022-12-17T02:18:46;102132.09;;;-0.24;92.39
17362;BME280;8798;51.938;4.348;2022-12-17T02:21:36;102142.53;;;-0.21;92.71
17362;BME280;8798;51.938;4.348;2022-12-17T02:24:29;102145.19;;;-0.21;92.72
17362;BME280;8798;51.938;4.348;2022-12-17T02:27:21;102146.88;;;-0.20;92.47
17362;BME280;8798;51.938;4.348;2022-12-17T02:30:08;102157.44;;;-0.20;92.68
17362;BME280;8798;51.938;4.348;2022-12-17T02:32:54;102151.31;;;-0.20;92.41
17362;BME280;8798;51.938;4.348;2022-12-17T02:35:43;102161.84;;;-0.19;92.33
17362;BME280;8798;51.938;4.348;2022-12-17T02:38:30;102160.09;;;-0.20;92.59
17362;BME280;8798;51.938;4.348;2022-12-17T02:41:18;102160.97;;;-0.19;92.59
17362;BME280;8798;51.938;4.348;2022-12-17T02:44:08;102164.47;;;-0.19;92.79
17362;BME280;8798;51.938;4.348;2022-12-17T02:46:56;102163.66;;;-0.21;92.79
17362;BME280;8798;51.938;4.348;2022-12-17T02:49:42;102151.38;;;-0.22;92.72
17362;BME280;8798;51.938;4.348;2022-12-17T02:52:30;102161.03;;;-0.21;92.52
17362;BME280;8798;51.938;4.348;2022-12-17T02:55:17;102154.91;;;-0.23;92.46
17362;BME280;8798;51.938;4.348;2022-12-17T02:58:03;102165.44;;;-0.22;92.17
17362;BME280;8798;51.938;4.348;2022-12-17T03:00:49;102166.31;;;-0.21;92.38
17362;BME280;8798;51.938;4.348;2022-12-17T03:03:35;102168.09;;;-0.22;92.35
17362;BME280;8798;51.938;4.348;2022-12-17T03:06:20;102169.88;;;-0.22;92.68
17362;BME280;8798;51.938;4.348;2022-12-17T03:09:05;102167.22;;;-0.22;92.38
17362;BME280;8798;51.938;4.348;2022-12-17T03:11:51;102163.75;;;-0.24;92.67
17362;BME280;8798;51.938;4.348;2022-12-17T03:14:36;102169.03;;;-0.24;92.45
17362;BME280;8798;51.938;4.348;2022-12-17T03:17:23;102163.75;;;-0.24;92.66
17362;BME280;8798;51.938;4.348;2022-12-17T03:20:09;102167.31;;;-0.25;92.27
17362;BME280;8798;51.938;4.348;2022-12-17T03:23:00;102164.66;;;-0.25;92.21
17362;BME280;8798;51.938;4.348;2022-12-17T03:25:46;102163.81;;;-0.26;92.64
17362;BME280;8798;51.938;4.348;2022-12-17T03:28:31;102171.72;;;-0.26;92.72
17362;BME280;8798;51.938;4.348;2022-12-17T03:31:16;102183.97;;;-0.23;92.83
17362;BME280;8798;51.938;4.348;2022-12-17T03:34:03;102209.25;;;-0.16;92.34
17362;BME280;8798;51.938;4.348;2022-12-17T03:36:48;102225.88;;;-0.12;92.40
17362;BME280;8798;51.938;4.348;2022-12-17T03:39:33;102246.81;;;-0.08;91.97
17362;BME280;8798;51.938;4.348;2022-12-17T03:42:18;102272.19;;;-0.02;92.85
17362;BME280;8798;51.938;4.348;2022-12-17T03:45:04;102293.13;;;0.04;92.97
17362;BME280;8798;51.938;4.348;2022-12-17T03:47:50;102322.00;;;0.10;92.64
17362;BME280;8798;51.938;4.348;2022-12-17T03:50:36;102337.72;;;0.15;92.45
17362;BME280;8798;51.938;4.348;2022-12-17T03:53:21;102349.06;;;0.17;92.54
17362;BME280;8798;51.938;4.348;2022-12-17T03:56:07;102355.19;;;0.19;92.47
17362;BME280;8798;51.938;4.348;2022-12-17T03:58:57;102352.59;;;0.17;92.65
17362;BME280;8798;51.938;4.348;2022-12-17T04:01:42;102342.94;;;0.16;92.37
17362;BME280;8798;51.938;4.348;2022-12-17T04:04:28;102339.47;;;0.14;93.25
17362;BME280;8798;51.938;4.348;2022-12-17T04:07:15;102330.72;;;0.12;92.63
17362;BME280;8798;51.938;4.348;2022-12-17T04:10:00;102328.06;;;0.12;92.55
17362;BME280;8798;51.938;4.348;2022-12-17T04:12:46;102340.34;;;0.15;92.25
17362;BME280;8798;51.938;4.348;2022-12-17T04:15:31;102348.22;;;0.16;92.15
17362;BME280;8798;51.938;4.348;2022-12-17T04:18:16;102336.00;;;0.12;92.64
17362;BME280;8798;51.938;4.348;2022-12-17T04:21:01;102307.16;;;0.06;92.53
17362;BME280;8798;51.938;4.348;2022-12-17T04:23:48;102287.94;;;0.01;92.22
17362;BME280;8798;51.938;4.348;2022-12-17T04:26:33;102278.34;;;-0.02;92.05
17362;BME280;8798;51.938;4.348;2022-12-17T04:29:22;102272.25;;;-0.04;92.57
17362;BME280;8798;51.938;4.348;2022-12-17T04:32:07;102273.09;;;-0.03;92.78
17362;BME280;8798;51.938;4.348;2022-12-17T04:34:54;102265.25;;;-0.05;92.47
17362;BME280;8798;51.938;4.348;2022-12-17T04:37:39;102261.81;;;-0.08;92.60
17362;BME280;8798;51.938;4.348;2022-12-17T04:40:26;102244.34;;;-0.12;92.56
17362;BME280;8798;51.938;4.348;2022-12-17T04:43:12;102230.34;;;-0.14;92.73
17362;BME280;8798;51.938;4.348;2022-12-17T04:45:57;102234.72;;;-0.15;92.64
17362;BME280;8798;51.938;4.348;2022-12-17T04:48:42;102233.00;;;-0.16;92.32
17362;BME280;8798;51.938;4.348;2022-12-17T04:51:28;102227.84;;;-0.19;92.45
17362;BME280;8798;51.938;4.348;2022-12-17T04:54:13;102218.16;;;-0.20;92.34
17362;BME280;8798;51.938;4.348;2022-12-17T04:57:00;102216.47;;;-0.21;92.89
17362;BME280;8798;51.938;4.348;2022-12-17T04:59:45;102202.50;;;-0.25;92.71
17362;BME280;8798;51.938;4.348;2022-12-17T05:02:30;102206.03;;;-0.26;92.41
17362;BME280;8798;51.938;4.348;2022-12-17T05:05:16;102198.19;;;-0.27;92.77
17362;BME280;8798;51.938;4.348;2022-12-17T05:08:01;102198.22;;;-0.29;92.68
17362;BME280;8798;51.938;4.348;2022-12-17T05:10:47;102202.56;;;-0.28;92.27
17362;BME280;8798;51.938;4.348;2022-12-17T05:13:33;102206.97;;;-0.27;92.74
17362;BME280;8798;51.938;4.348;2022-12-17T05:16:18;102232.31;;;-0.21;92.74
17362;BME280;8798;51.938;4.348;2022-12-17T05:19:03;102254.19;;;-0.17;92.55
17362;BME280;8798;51.938;4.348;2022-12-17T05:21:49;102248.91;;;-0.17;92.06
17362;BME280;8798;51.938;4.348;2022-12-17T05:24:34;102238.44;;;-0.20;93.08
17362;BME280;8798;51.938;4.348;2022-12-17T05:27:19;102231.44;;;-0.22;92.96
17362;BME280;8798;51.938;4.348;2022-12-17T05:30:06;102234.09;;;-0.22;92.72
17362;BME280;8798;51.938;4.348;2022-12-17T05:32:57;102248.03;;;-0.18;92.36
17362;BME280;8798;51.938;4.348;2022-12-17T05:35:42;102281.31;;;-0.12;92.20
17362;BME280;8798;51.938;4.348;2022-12-17T05:38:27;102297.00;;;-0.08;92.54
17362;BME280;8798;51.938;4.348;2022-12-17T05:41:12;102308.34;;;-0.04;92.67
17362;BME280;8798;51.938;4.348;2022-12-17T05:43:58;102324.94;;;-0.01;92.17
17362;BME280;8798;51.938;4.348;2022-12-17T05:46:44;102343.31;;;0.04;92.02
17362;BME280;8798;51.938;4.348;2022-12-17T05:49:29;102358.19;;;0.07;92.70
17362;BME280;8798;51.938;4.348;2022-12-17T05:52:15;102371.31;;;0.10;92.58
17362;BME280;8798;51.938;4.348;2022-12-17T05:55:02;102372.19;;;0.10;92.82
17362;BME280;8798;51.938;4.348;2022-12-17T05:57:48;102370.41;;;0.11;92.39
17362;BME280;8798;51.938;4.348;2022-12-17T06:00:33;102366.91;;;0.10;92.61
17362;BME280;8798;51.938;4.348;2022-12-17T06:03:20;102378.34;;;0.11;92.51
17362;BME280;8798;51.938;4.348;2022-12-17T06:06:06;102377.50;;;0.09;92.51
17362;BME280;8798;51.938;4.348;2022-12-17T06:08:51;102339.84;;;0.02;93.09
17362;BME280;8798;51.938;4.348;2022-12-17T06:11:37;102332.94;;;-0.02;92.28
17362;BME280;8798;51.938;4.348;2022-12-17T06:14:28;102312.78;;;-0.05;92.28
17362;BME280;8798;51.938;4.348;2022-12-17T06:17:13;102313.66;;;-0.06;92.38
17362;BME280;8798;51.938;4.348;2022-12-17T06:20:00;102323.34;;;-0.05;93.14
17362;BME280;8798;51.938;4.348;2022-12-17T06:23:00;102334.69;;;-0.03;92.60
17362;BME280;8798;51.938;4.348;2022-12-17T06:25:45;102346.03;;;0.01;92.71
17362;BME280;8798;51.938;4.348;2022-12-17T06:28:45;102333.81;;;-0.02;92.39
17362;BME280;8798;51.938;4.348;2022-12-17T06:31:30;102319.81;;;-0.05;92.50
17362;BME280;8798;51.938;4.348;2022-12-17T06:34:16;102299.72;;;-0.09;92.87
17362;BME280;8798;51.938;4.348;2022-12-17T06:37:02;102304.16;;;-0.11;92.77
17362;BME280;8798;51.938;4.348;2022-12-17T06:39:48;102293.72;;;-0.14;92.47
17362;BME280;8798;51.938;4.348;2022-12-17T06:42:33;102298.91;;;-0.13;92.76
17362;BME280;8798;51.938;4.348;2022-12-17T06:45:19;102316.38;;;-0.07;92.28
17362;BME280;8798;51.938;4.348;2022-12-17T06:48:06;102340.91;;;-0.04;92.61
17362;BME280;8798;51.938;4.348;2022-12-17T06:50:52;102353.19;;;-0.03;92.26
17362;BME280;8798;51.938;4.348;2022-12-17T06:53:39;102351.38;;;-0.01;92.74
17362;BME280;8798;51.938;4.348;2022-12-17T06:56:25;102354.91;;;0.00;92.63
17362;BME280;8798;51.938;4.348;2022-12-17T06:59:07;102359.25;;;0.01;92.37
17362;BME280;8798;51.938;4.348;2022-12-17T07:01:51;102386.34;;;0.08;92.79
17362;BME280;8798;51.938;4.348;2022-12-17T07:04:37;102443.16;;;0.23;92.68
17362;BME280;8798;51.938;4.348;2022-12-17T07:07:22;102495.63;;;0.35;92.67
17362;BME280;8798;51.938;4.348;2022-12-17T07:10:09;102536.78;;;0.43;92.78
17362;BME280;8798;51.938;4.348;2022-12-17T07:12:54;102550.72;;;0.49;92.86
17362;BME280;8798;51.938;4.348;2022-12-17T07:15:39;102555.03;;;0.51;93.00
17362;BME280;8798;51.938;4.348;2022-12-17T07:18:33;102580.53;;;0.54;92.30
17362;BME280;8798;51.938;4.348;2022-12-17T07:21:29;102568.22;;;0.53;92.58
17362;BME280;8798;51.938;4.348;2022-12-17T07:24:15;102574.34;;;0.55;92.28
17362;BME280;8798;51.938;4.348;2022-12-17T07:27:01;102569.94;;;0.54;92.55
17362;BME280;8798;51.938;4.348;2022-12-17T07:29:46;102562.09;;;0.52;92.29
17362;BME280;8798;51.938;4.348;2022-12-17T07:32:32;102563.03;;;0.50;92.54
17362;BME280;8798;51.938;4.348;2022-12-17T07:35:17;102544.56;;;0.48;93.25
17362;BME280;8798;51.938;4.348;2022-12-17T07:38:04;102536.69;;;0.47;92.74
17362;BME280;8798;51.938;4.348;2022-12-17T07:40:49;102533.28;;;0.43;92.95
17362;BME280;8798;51.938;4.348;2022-12-17T07:43:47;102509.56;;;0.40;92.30
17362;BME280;8798;51.938;4.348;2022-12-17T07:46:33;102498.22;;;0.36;92.70
17362;BME280;8798;51.938;4.348;2022-12-17T07:49:18;102493.00;;;0.35;92.33
17362;BME280;8798;51.938;4.348;2022-12-17T07:52:04;102478.09;;;0.32;92.25
17362;BME280;8798;51.938;4.348;2022-12-17T07:54:49;102472.00;;;0.30;92.92
17362;BME280;8798;51.938;4.348;2022-12-17T07:57:37;102465.88;;;0.28;92.98
17362;BME280;8798;51.938;4.348;2022-12-17T08:00:24;102456.28;;;0.24;92.91
17362;BME280;8798;51.938;4.348;2022-12-17T08:03:14;102447.53;;;0.22;93.09
17362;BME280;8798;51.938;4.348;2022-12-17T08:06:01;102436.19;;;0.20;92.44
17362;BME280;8798;51.938;4.348;2022-12-17T08:08:46;102424.81;;;0.16;92.69
17362;BME280;8798;51.938;4.348;2022-12-17T08:11:31;102416.91;;;0.16;92.28
17362;BME280;8798;51.938;4.348;2022-12-17T08:14:16;102416.06;;;0.14;93.13
17362;BME280;8798;51.938;4.348;2022-12-17T08:17:03;102395.06;;;0.10;92.45
17362;BME280;8798;51.938;4.348;2022-12-17T08:19:48;102390.72;;;0.09;92.53
17362;BME280;8798;51.938;4.348;2022-12-17T08:22:34;102396.00;;;0.09;92.90
17362;BME280;8798;51.938;4.348;2022-12-17T08:25:19;102396.03;;;0.07;93.19
17362;BME280;8798;51.938;4.348;2022-12-17T08:28:04;102395.16;;;0.07;92.75
17362;BME280;8798;51.938;4.348;2022-12-17T08:31:09;102395.16;;;0.07;92.93
17362;BME280;8798;51.938;4.348;2022-12-17T08:33:56;102392.53;;;0.07;92.58
17362;BME280;8798;51.938;4.348;2022-12-17T08:36:41;102396.00;;;0.09;92.84
17362;BME280;8798;51.938;4.348;2022-12-17T08:39:26;102415.34;;;0.09;92.63
17362;BME280;8798;51.938;4.348;2022-12-17T08:42:11;102425.81;;;0.12;92.77
17362;BME280;8798;51.938;4.348;2022-12-17T08:44:56;102429.34;;;0.13;92.18
17362;BME280;8798;51.938;4.348;2022-12-17T08:47:41;102430.16;;;0.15;92.37
17362;BME280;8798;51.938;4.348;2022-12-17T08:50:31;102439.81;;;0.16;93.11
17362;BME280;8798;51.938;4.348;2022-12-17T08:53:16;102443.31;;;0.16;92.33
17362;BME280;8798;51.938;4.348;2022-12-17T08:56:02;102437.16;;;0.16;92.97
17362;BME280;8798;51.938;4.348;2022-12-17T08:58:48;102454.72;;;0.18;92.79
17362;BME280;8798;51.938;4.348;2022-12-17T09:01:34;102471.31;;;0.22;92.26
17362;BME280;8798;51.938;4.348;2022-12-17T09:04:20;102479.19;;;0.25;92.71
17362;BME280;8798;51.938;4.348;2022-12-17T09:07:06;102482.63;;;0.27;93.05
17362;BME280;8798;51.938;4.348;2022-12-17T09:09:51;102497.59;;;0.28;92.95
17362;BME280;8798;51.938;4.348;2022-12-17T09:12:37;102501.09;;;0.29;92.77
17362;BME280;8798;51.938;4.348;2022-12-17T09:15:29;102513.34;;;0.31;92.41
17362;BME280;8798;51.938;4.348;2022-12-17T09:18:17;102515.94;;;0.33;92.82
17362;BME280;8798;51.938;4.348;2022-12-17T09:21:03;102526.47;;;0.34;92.42
17362;BME280;8798;51.938;4.348;2022-12-17T09:24:08;102537.84;;;0.36;92.70
17362;BME280;8798;51.938;4.348;2022-12-17T09:26:54;102549.25;;;0.38;92.41
17362;BME280;8798;51.938;4.348;2022-12-17T09:29:39;102561.50;;;0.41;92.40
17362;BME280;8798;51.938;4.348;2022-12-17T09:32:24;102570.28;;;0.43;92.48
17362;BME280;8798;51.938;4.348;2022-12-17T09:35:09;102580.75;;;0.46;93.04
17362;BME280;8798;51.938;4.348;2022-12-17T09:37:55;102583.38;;;0.46;93.00
17362;BME280;8798;51.938;4.348;2022-12-17T09:40:50;102591.28;;;0.48;92.88
17362;BME280;8798;51.938;4.348;2022-12-17T09:43:41;102586.00;;;0.48;93.21
17362;BME280;8798;51.938;4.348;2022-12-17T09:46:32;102586.88;;;0.48;92.77
17362;BME280;8798;51.938;4.348;2022-12-17T09:49:22;102599.16;;;0.49;92.61
17362;BME280;8798;51.938;4.348;2022-12-17T09:52:18;102602.63;;;0.51;92.13
17362;BME280;8798;51.938;4.348;2022-12-17T09:55:14;102607.03;;;0.52;92.58
17362;BME280;8798;51.938;4.348;2022-12-17T09:58:03;102615.75;;;0.54;93.25
17362;BME280;8798;51.938;4.348;2022-12-17T10:00:49;102630.63;;;0.58;92.11
17362;BME280;8798;51.938;4.348;2022-12-17T10:03:37;102642.91;;;0.61;92.22
17362;BME280;8798;51.938;4.348;2022-12-17T10:06:26;102663.06;;;0.65;93.02
17362;BME280;8798;51.938;4.348;2022-12-17T10:09:14;102682.34;;;0.69;92.86
17362;BME280;8798;51.938;4.348;2022-12-17T10:12:10;102691.06;;;0.72;92.58
17362;BME280;8798;51.938;4.348;2022-12-17T10:14:57;102701.56;;;0.75;92.41
17362;BME280;8798;51.938;4.348;2022-12-17T10:17:43;102703.28;;;0.76;92.42
17362;BME280;8798;51.938;4.348;2022-12-17T10:20:32;102711.19;;;0.78;92.65
17362;BME280;8798;51.938;4.348;2022-12-17T10:23:24;102725.19;;;0.81;93.35
17362;BME280;8798;51.938;4.348;2022-12-17T10:26:15;102725.16;;;0.83;92.32
17362;BME280;8798;51.938;4.348;2022-12-17T10:29:03;102737.41;;;0.85;92.81
17362;BME280;8798;51.938;4.348;2022-12-17T10:31:50;102745.25;;;0.89;92.91
17362;BME280;8798;51.938;4.348;2022-12-17T10:34:36;102754.00;;;0.92;92.74
17362;BME280;8798;51.938;4.348;2022-12-17T10:37:31;102769.78;;;0.95;92.60
17362;BME280;8798;51.938;4.348;2022-12-17T10:40:23;102786.41;;;0.99;92.36
17362;BME280;8798;51.938;4.348;2022-12-17T10:43:24;102798.66;;;1.03;92.18
17362;BME280;8798;51.938;4.348;2022-12-17T10:46:09;102815.34;;;1.06;92.20
17362;BME280;8798;51.938;4.348;2022-12-17T10:49:09;102823.19;;;1.10;93.20
17362;BME280;8798;51.938;4.348;2022-12-17T10:52:00;102831.91;;;1.13;92.96
17362;BME280;8798;51.938;4.348;2022-12-17T10:54:55;102853.88;;;1.17;93.12
17362;BME280;8798;51.938;4.348;2022-12-17T10:57:41;102862.59;;;1.20;92.66
17362;BME280;8798;51.938;4.348;2022-12-17T11:00:29;102872.19;;;1.24;92.53
17362;BME280;8798;51.938;4.348;2022-12-17T11:03:31;102880.03;;;1.27;93.01
17362;BME280;8798;51.938;4.348;2022-12-17T11:06:22;102901.97;;;1.33;92.61
17362;BME280;8798;51.938;4.348;2022-12-17T11:09:17;102921.22;;;1.39;92.91
17362;BME280;8798;51.938;4.348;2022-12-17T11:12:08;102921.22;;;1.39;92.28
17362;BME280;8798;51.938;4.348;2022-12-17T11:15:02;102926.44;;;1.41;92.51
17362;BME280;8798;51.938;4.348;2022-12-17T11:17:49;102925.56;;;1.42;92.74
17362;BME280;8798;51.938;4.348;2022-12-17T11:20:47;102931.69;;;1.44;93.46
17362;BME280;8798;51.938;4.348;2022-12-17T11:23:38;102940.41;;;1.47;92.75
17362;BME280;8798;51.938;4.348;2022-12-17T11:26:29;102945.59;;;1.50;92.39
17362;BME280;8798;51.938;4.348;2022-12-17T11:29:16;102955.25;;;1.53;92.35
17362;BME280;8798;51.938;4.348;2022-12-17T11:32:15;102966.66;;;1.57;92.27
17362;BME280;8798;51.938;4.348;2022-12-17T11:35:08;102979.75;;;1.61;93.37
17362;BME280;8798;51.938;4.348;2022-12-17T11:38:03;102988.47;;;1.65;93.15
17362;BME280;8798;51.938;4.348;2022-12-17T11:41:00;102988.47;;;1.66;93.08
17362;BME280;8798;51.938;4.348;2022-12-17T11:43:53;102994.53;;;1.70;92.60
17362;BME280;8798;51.938;4.348;2022-12-17T11:46:47;103005.97;;;1.72;93.04
17362;BME280;8798;51.938;4.348;2022-12-17T11:49:41;103012.09;;;1.74;93.38
17362;BME280;8798;51.938;4.348;2022-12-17T11:52:33;103007.66;;;1.75;92.39
17362;BME280;8798;51.938;4.348;2022-12-17T11:55:30;103010.28;;;1.76;93.21
17362;BME280;8798;51.938;4.348;2022-12-17T11:58:23;103010.22;;;1.78;92.70
17362;BME280;8798;51.938;4.348;2022-12-17T12:01:17;103018.09;;;1.81;92.32
17362;BME280;8798;51.938;4.348;2022-12-17T12:04:15;103016.25;;;1.83;92.70
17362;BME280;8798;51.938;4.348;2022-12-17T12:07:08;103032.97;;;1.86;92.25
17362;BME280;8798;51.938;4.348;2022-12-17T12:10:02;103034.66;;;1.89;92.44
17362;BME280;8798;51.938;4.348;2022-12-17T12:12:58;103038.13;;;1.91;92.63
17362;BME280;8798;51.938;4.348;2022-12-17T12:16:02;103053.03;;;1.95;93.10
17362;BME280;8798;51.938;4.348;2022-12-17T12:18:58;103063.56;;;1.98;92.98
17362;BME280;8798;51.938;4.348;2022-12-17T12:21:50;103071.44;;;2.01;92.22
17362;BME280;8798;51.938;4.348;2022-12-17T12:24:59;103065.19;;;2.02;93.05
17362;BME280;8798;51.938;4.348;2022-12-17T12:27:57;103066.03;;;2.04;92.66
17362;BME280;8798;51.938;4.348;2022-12-17T12:30:55;103073.03;;;2.07;93.32
17362;BME280;8798;51.938;4.348;2022-12-17T12:33:48;103081.81;;;2.09;92.23
17362;BME280;8798;51.938;4.348;2022-12-17T12:36:35;103078.25;;;2.10;92.74
17362;BME280;8798;51.938;4.348;2022-12-17T12:39:27;103079.06;;;2.13;93.44
17362;BME280;8798;51.938;4.348;2022-12-17T12:42:21;103078.13;;;2.14;92.52
17362;BME280;8798;51.938;4.348;2022-12-17T12:45:28;103090.44;;;2.17;93.10
17362;BME280;8798;51.938;4.348;2022-12-17T12:48:27;103093.91;;;2.19;93.37
17362;BME280;8798;51.938;4.348;2022-12-17T12:51:19;103108.88;;;2.22;93.22
17362;BME280;8798;51.938;4.348;2022-12-17T12:54:27;103112.31;;;2.25;92.76
17362;BME280;8798;51.938;4.348;2022-12-17T12:57:30;103106.09;;;2.26;93.42
17362;BME280;8798;51.938;4.348;2022-12-17T13:00:29;103103.41;;;2.28;92.62
17362;BME280;8798;51.938;4.348;2022-12-17T13:03:28;103103.31;;;2.31;92.93
17362;BME280;8798;51.938;4.348;2022-12-17T13:06:40;103135.88;;;2.36;93.45
17362;BME280;8798;51.938;4.348;2022-12-17T13:09:35;103132.28;;;2.39;92.52
17362;BME280;8798;51.938;4.348;2022-12-17T13:12:18;103146.38;;;2.41;93.29
17362;BME280;8798;51.938;4.348;2022-12-17T13:14:52;103154.19;;;2.45;92.85
17362;BME280;8798;51.938;4.348;2022-12-17T13:17:27;103155.84;;;2.49;92.58
17362;BME280;8798;51.938;4.348;2022-12-17T13:22:49;103161.94;;;2.53;93.41
17362;BME280;8798;51.938;4.348;2022-12-17T13:25:20;103162.81;;;2.53;92.39
17362;BME280;8798;51.938;4.348;2022-12-17T13:27:50;103152.19;;;2.53;92.75
17362;BME280;8798;51.938;4.348;2022-12-17T13:30:22;103146.88;;;2.55;92.52
17362;BME280;8798;51.938;4.348;2022-12-17T13:33:08;103145.06;;;2.55;92.76
17362;BME280;8798;51.938;4.348;2022-12-17T13:35:55;103141.50;;;2.56;92.63
17362;BME280;8798;51.938;4.348;2022-12-17T13:38:32;103132.72;;;2.54;92.49
17362;BME280;8798;51.938;4.348;2022-12-17T13:41:08;103120.38;;;2.53;93.25
17362;BME280;8798;51.938;4.348;2022-12-17T13:43:42;103107.13;;;2.52;93.26
17362;BME280;8798;51.938;4.348;2022-12-17T13:46:21;103094.81;;;2.51;92.82
17362;BME280;8798;51.938;4.348;2022-12-17T13:48:55;103085.13;;;2.50;92.72
17362;BME280;8798;51.938;4.348;2022-12-17T13:51:26;103071.03;;;2.48;92.22
17362;BME280;8798;51.938;4.348;2022-12-17T13:53:56;103080.72;;;2.49;93.10
17362;BME280;8798;51.938;4.348;2022-12-17T13:56:25;103061.38;;;2.45;93.31
17362;BME280;8798;51.938;4.348;2022-12-17T13:58:56;103046.44;;;2.43;93.27
17362;BME280;8798;51.938;4.348;2022-12-17T14:01:43;103036.72;;;2.42;92.79
17362;BME280;8798;51.938;4.348;2022-12-17T14:04:19;103013.88;;;2.38;93.02
17362;BME280;8798;51.938;4.348;2022-12-17T14:06:49;103007.66;;;2.37;92.85
17362;BME280;8798;51.938;4.348;2022-12-17T14:09:19;102987.41;;;2.34;92.69
17362;BME280;8798;51.938;4.348;2022-12-17T14:11:47;102981.25;;;2.34;92.84
17362;BME280;8798;51.938;4.348;2022-12-17T14:14:38;102968.09;;;2.31;92.64
17362;BME280;8798;51.938;4.348;2022-12-17T14:17:15;102955.72;;;2.30;92.45
17362;BME280;8798;51.938;4.348;2022-12-17T14:19:43;102947.84;;;2.28;92.54
17362;BME280;8798;51.938;4.348;2022-12-17T14:22:19;102934.63;;;2.27;92.81
17362;BME280;8798;51.938;4.348;2022-12-17T14:24:50;102928.50;;;2.25;92.93
17362;BME280;8798;51.938;4.348;2022-12-17T14:27:22;102927.63;;;2.24;93.10
17362;BME280;8798;51.938;4.348;2022-12-17T14:29:51;102927.63;;;2.24;92.54
17362;BME280;8798;51.938;4.348;2022-12-17T14:32:25;102909.13;;;2.23;92.81
17362;BME280;8798;51.938;4.348;2022-12-17T14:34:56;102902.94;;;2.22;92.48
17362;BME280;8798;51.938;4.348;2022-12-17T14:37:28;102900.34;;;2.21;92.08
17362;BME280;8798;51.938;4.348;2022-12-17T14:40:00;102888.00;;;2.20;92.85
17362;BME280;8798;51.938;4.348;2022-12-17T14:42:29;102882.75;;;2.18;92.70
17362;BME280;8798;51.938;4.348;2022-12-17T14:45:04;102879.28;;;2.16;93.10
17362;BME280;8798;51.938;4.348;2022-12-17T14:47:34;102874.00;;;2.16;92.05
17362;BME280;8798;51.938;4.348;2022-12-17T14:50:06;102868.72;;;2.14;93.18
17362;BME280;8798;51.938;4.348;2022-12-17T14:52:41;102863.41;;;2.14;92.48
17362;BME280;8798;51.938;4.348;2022-12-17T14:55:28;102850.25;;;2.11;92.20